createdAt,value
2022-08-05T00:03:06.141Z,102184.22
2022-08-05T00:06:33.181Z,102181.28
2022-08-05T00:10:00.217Z,102171.97
2022-08-05T00:13:38.368Z,102151.44
2022-08-05T00:17:04.302Z,102152.38
2022-08-05T00:20:43.318Z,102145.50
2022-08-05T00:24:18.886Z,102124.84
2022-08-05T00:27:49.349Z,102121.38
2022-08-05T00:31:15.213Z,102108.88
2022-08-05T00:34:53.545Z,102111.97
2022-08-05T00:38:28.682Z,102115.22
2022-08-05T00:41:55.778Z,102119.00
2022-08-05T00:45:28.364Z,102119.06
2022-08-05T00:49:02.294Z,102121.97
2022-08-05T00:52:28.974Z,102115.84
2022-08-05T00:55:53.391Z,102115.09
2022-08-05T00:59:18.314Z,102117.59
2022-08-05T01:02:42.272Z,102111.56
2022-08-05T01:06:14.054Z,102105.25
2022-08-05T01:09:39.395Z,102082.94
2022-08-05T01:13:13.220Z,102060.28
2022-08-05T01:17:03.292Z,102045.88
2022-08-05T01:20:47.285Z,102043.13
2022-08-05T01:24:26.245Z,102035.03
2022-08-05T01:28:31.294Z,102040.75
2022-08-05T01:32:01.259Z,102034.75
2022-08-05T01:35:51.111Z,102022.31
2022-08-05T01:39:15.349Z,102021.91
2022-08-05T01:43:01.301Z,102032.41
2022-08-05T01:46:42.810Z,102025.34
2022-08-05T01:50:15.026Z,102020.88
2022-08-05T01:53:57.161Z,102020.13
2022-08-05T01:58:18.763Z,102015.41
2022-08-05T02:01:09.346Z,101990.34
2022-08-05T02:04:34.367Z,101993.53
2022-08-05T02:08:01.242Z,101995.22
2022-08-05T02:11:32.733Z,101999.22
2022-08-05T02:15:03.385Z,101990.66
2022-08-05T02:18:35.165Z,101997.03
2022-08-05T02:22:25.641Z,101989.13
2022-08-05T02:25:52.337Z,101989.00
2022-08-05T02:29:21.711Z,102001.91
2022-08-05T02:32:49.283Z,102010.44
2022-08-05T02:36:15.647Z,101989.09
2022-08-05T02:39:42.436Z,101998.19
2022-08-05T02:43:12.379Z,101994.94
2022-08-05T02:46:53.404Z,101992.09
2022-08-05T02:50:25.370Z,101987.16
2022-08-05T02:53:49.287Z,101979.56
2022-08-05T02:58:09.834Z,101992.59
2022-08-05T03:01:12.395Z,101976.34
2022-08-05T03:04:40.322Z,101960.78
2022-08-05T03:08:08.965Z,101956.56
2022-08-05T03:11:57.447Z,101941.00
2022-08-05T03:15:24.586Z,101929.81
2022-08-05T03:18:49.365Z,101922.66
2022-08-05T03:22:16.287Z,101910.94
2022-08-05T03:26:04.403Z,101905.22
2022-08-05T03:29:45.919Z,101913.41
2022-08-05T03:33:11.370Z,101893.34
2022-08-05T03:36:37.322Z,101882.06
2022-08-05T03:40:24.311Z,101884.09
2022-08-05T03:44:09.236Z,101855.53
2022-08-05T03:47:41.399Z,101864.63
2022-08-05T03:52:50.494Z,101869.50
2022-08-05T03:56:04.394Z,101862.34
2022-08-05T03:58:59.354Z,101845.09
2022-08-05T04:02:38.888Z,101836.88
2022-08-05T04:06:08.742Z,101840.34
2022-08-05T04:09:36.698Z,101850.50
2022-08-05T04:13:03.395Z,101842.50
2022-08-05T04:16:32.716Z,101859.41
2022-08-05T04:20:04.381Z,101862.59
2022-08-05T04:23:58.368Z,101859.97
2022-08-05T04:27:13.473Z,101870.50
2022-08-05T04:30:38.385Z,101870.75
2022-08-05T04:34:33.117Z,101859.22
2022-08-05T04:38:01.104Z,101856.22
2022-08-05T04:41:36.821Z,101830.31
2022-08-05T04:45:03.378Z,101839.75
2022-08-05T04:48:28.562Z,101833.03
2022-08-05T04:52:00.218Z,101837.88
2022-08-05T04:56:15.307Z,101825.16
2022-08-05T04:59:21.737Z,101832.56
2022-08-05T05:02:48.441Z,101835.97
2022-08-05T05:06:39.187Z,101825.94
2022-08-05T05:10:01.969Z,101826.16
2022-08-05T05:13:32.261Z,101828.72
2022-08-05T05:17:09.626Z,101822.94
2022-08-05T05:20:33.348Z,101805.41
2022-08-05T05:24:02.875Z,101824.19
2022-08-05T05:27:44.909Z,101832.03
2022-08-05T05:31:10.357Z,101827.00
2022-08-05T05:34:35.389Z,101816.44
2022-08-05T05:38:09.217Z,101805.16
2022-08-05T05:41:40.631Z,101813.13
2022-08-05T05:45:06.415Z,101819.47
2022-08-05T05:48:31.435Z,101822.84
2022-08-05T05:51:55.419Z,101827.59
2022-08-05T05:55:23.423Z,101820.69
2022-08-05T05:59:08.416Z,101808.09
2022-08-05T06:02:36.897Z,101813.22
2022-08-05T06:06:02.380Z,101805.22
2022-08-05T06:09:25.696Z,101784.84
2022-08-05T06:12:59.419Z,101804.16
2022-08-05T06:16:28.553Z,101794.09
2022-08-05T06:19:59.768Z,101789.91
2022-08-05T06:23:24.370Z,101793.69
2022-08-05T06:26:52.128Z,101806.94
2022-08-05T06:30:20.999Z,101819.22
2022-08-05T06:34:07.971Z,101794.25
2022-08-05T06:37:57.937Z,101786.28
2022-08-05T06:41:08.437Z,101781.16
2022-08-05T06:44:35.475Z,101776.84
2022-08-05T06:48:35.939Z,101780.22
2022-08-05T06:51:43.429Z,101762.16
2022-08-05T06:55:07.412Z,101762.81
2022-08-05T06:58:36.168Z,101752.06
2022-08-05T07:02:00.453Z,101758.28
2022-08-05T07:05:31.840Z,101775.69
2022-08-05T07:09:04.173Z,101766.63
2022-08-05T07:12:49.192Z,101778.00
2022-08-05T07:18:00.304Z,101778.25
2022-08-05T07:20:32.914Z,101783.03
2022-08-05T07:23:57.460Z,101780.34
2022-08-05T07:27:27.296Z,101773.94
2022-08-05T07:31:03.071Z,101787.00
2022-08-05T07:34:26.243Z,101783.31
2022-08-05T07:37:52.412Z,101775.66
2022-08-05T07:42:12.762Z,101777.72
2022-08-05T07:45:09.329Z,101760.75
2022-08-05T07:49:03.074Z,101761.38
2022-08-05T07:52:17.501Z,101748.56
2022-08-05T07:56:05.690Z,101752.13
2022-08-05T07:59:38.255Z,101750.44
2022-08-05T08:03:13.885Z,101743.63
2022-08-05T08:06:40.445Z,101740.91
2022-08-05T08:10:07.440Z,101755.00
2022-08-05T08:13:32.493Z,101756.47
2022-08-05T08:17:18.449Z,101765.56
2022-08-05T08:21:02.224Z,101761.41
2022-08-05T08:24:45.988Z,101768.84
2022-08-05T08:28:18.963Z,101758.09
2022-08-05T08:31:57.447Z,101763.06
2022-08-05T08:35:22.451Z,101757.47
2022-08-05T08:38:53.040Z,101758.47
2022-08-05T08:42:33.632Z,101755.13
2022-08-05T08:45:59.519Z,101773.50
2022-08-05T08:50:05.801Z,101778.25
2022-08-05T08:53:16.506Z,101772.91
2022-08-05T08:56:47.887Z,101761.31
2022-08-05T09:00:16.461Z,101780.66
2022-08-05T09:03:45.480Z,101783.78
2022-08-05T09:07:10.630Z,101769.56
2022-08-05T09:10:43.444Z,101777.22
2022-08-05T09:14:57.714Z,101772.22
2022-08-05T09:17:56.438Z,101762.72
2022-08-05T09:22:17.662Z,101762.72
2022-08-05T09:25:23.838Z,101754.28
2022-08-05T09:28:57.481Z,101744.72
2022-08-05T09:32:49.364Z,101745.34
2022-08-05T09:36:27.639Z,101741.22
2022-08-05T09:39:57.632Z,101741.81
2022-08-05T09:43:21.492Z,101726.97
2022-08-05T09:46:51.705Z,101721.56
2022-08-05T09:50:38.759Z,101707.13
2022-08-05T09:54:08.508Z,101699.34
2022-08-05T09:57:54.744Z,101700.19
2022-08-05T10:01:32.421Z,101700.19
2022-08-05T10:04:56.519Z,101695.06
2022-08-05T10:08:37.304Z,101691.31
2022-08-05T10:12:07.441Z,101694.00
2022-08-05T10:15:51.459Z,101699.56
2022-08-05T10:19:23.602Z,101684.06
2022-08-05T10:22:58.434Z,101677.84
2022-08-05T10:26:32.766Z,101692.94
2022-08-05T10:30:06.928Z,101690.25
2022-08-05T10:33:45.491Z,101686.75
2022-08-05T10:37:16.459Z,101687.59
2022-08-05T10:40:45.608Z,101684.69
2022-08-05T10:44:18.491Z,101675.16
2022-08-05T10:48:30.130Z,101691.84
2022-08-05T10:51:53.045Z,101664.19
2022-08-05T10:55:18.675Z,101674.53
2022-08-05T10:58:48.702Z,101678.00
2022-08-05T11:02:37.459Z,101668.47
2022-08-05T11:06:30.965Z,101669.91
2022-08-05T11:10:10.511Z,101673.59
2022-08-05T11:13:58.245Z,101667.81
2022-08-05T11:18:00.484Z,101673.97
2022-08-05T11:21:49.543Z,101662.16
2022-08-05T11:26:05.849Z,101650.53
2022-08-05T11:29:52.507Z,101659.97
2022-08-05T11:33:53.497Z,101649.38
2022-08-05T11:38:28.730Z,101636.00
2022-08-05T11:41:58.154Z,101662.06
2022-08-05T11:45:02.527Z,101650.97
2022-08-05T11:48:28.529Z,101644.34
2022-08-05T11:51:52.625Z,101624.53
2022-08-05T11:55:16.489Z,101628.19
2022-08-05T11:58:53.164Z,101636.34
2022-08-05T12:02:29.673Z,101638.88
2022-08-05T12:05:56.589Z,101624.44
2022-08-05T12:09:20.545Z,101627.41
2022-08-05T12:13:02.584Z,101637.63
2022-08-05T12:16:33.585Z,101626.50
2022-08-05T12:20:25.838Z,101614.53
2022-08-05T12:23:50.577Z,101611.09
2022-08-05T12:27:21.518Z,101613.22
2022-08-05T12:30:53.528Z,101606.13
2022-08-05T12:34:23.832Z,101582.38
2022-08-05T12:37:49.602Z,101600.84
2022-08-05T12:41:17.619Z,101603.19
2022-08-05T12:44:41.539Z,101618.84
2022-08-05T12:48:17.292Z,101623.44
2022-08-05T12:52:12.065Z,101615.88
2022-08-05T12:55:43.589Z,101624.63
2022-08-05T13:00:08.481Z,101630.28
2022-08-05T13:03:14.787Z,101630.63
2022-08-05T13:06:41.538Z,101637.69
2022-08-05T13:10:19.361Z,101628.16
2022-08-05T13:14:05.714Z,101647.31
2022-08-05T13:17:41.708Z,101654.75
2022-08-05T13:21:06.677Z,101651.31
2022-08-05T13:24:51.115Z,101642.91
2022-08-05T13:28:15.590Z,101634.69
2022-08-05T13:32:04.070Z,101622.63
2022-08-05T13:35:42.863Z,101624.91
2022-08-05T13:40:13.801Z,101623.44
2022-08-05T13:42:56.603Z,101613.50
2022-08-05T13:46:50.569Z,101617.66
2022-08-05T13:50:11.329Z,101613.44
2022-08-05T13:53:47.931Z,101613.00
2022-08-05T13:57:12.563Z,101601.44
2022-08-05T14:00:39.589Z,101585.09
2022-08-05T14:04:26.765Z,101584.34
2022-08-05T14:08:00.034Z,101594.50
2022-08-05T14:11:31.338Z,101578.13
2022-08-05T14:14:56.578Z,101578.38
2022-08-05T14:18:24.117Z,101575.44
2022-08-05T14:22:10.215Z,101571.13
2022-08-05T14:25:33.523Z,101575.13
2022-08-05T14:28:57.573Z,101571.16
2022-08-05T14:32:26.974Z,101562.75
2022-08-05T14:35:52.202Z,101571.78
2022-08-05T14:39:23.444Z,101554.84
2022-08-05T14:42:49.608Z,101543.19
2022-08-05T14:46:13.574Z,101527.66
2022-08-05T14:49:59.112Z,101523.06
2022-08-05T14:53:22.631Z,101525.91
2022-08-05T14:56:54.651Z,101528.81
2022-08-05T15:00:20.627Z,101534.97
2022-08-05T15:03:51.595Z,101557.03
2022-08-05T15:08:06.087Z,101571.00
2022-08-05T15:11:01.552Z,101578.84
2022-08-05T15:14:35.097Z,101574.81
2022-08-05T15:18:07.604Z,101560.41
2022-08-05T15:21:31.629Z,101547.78
2022-08-05T15:24:59.640Z,101543.91
2022-08-05T15:28:27.626Z,101536.59
2022-08-05T15:31:53.079Z,101541.47
2022-08-05T15:35:17.587Z,101540.53
2022-08-05T15:38:42.190Z,101535.56
2022-08-05T15:42:50.432Z,101540.47
2022-08-05T15:46:00.684Z,101523.47
2022-08-05T15:49:48.008Z,101538.34
2022-08-05T15:53:09.870Z,101547.06
2022-08-05T15:56:36.603Z,101535.25
2022-08-05T16:00:02.340Z,101550.00
2022-08-05T16:03:27.576Z,101536.38
2022-08-05T16:06:53.605Z,101530.31
2022-08-05T16:10:23.133Z,101525.22
2022-08-05T16:13:49.587Z,101507.13
2022-08-05T16:17:13.653Z,101512.91
2022-08-05T16:20:37.559Z,101520.06
2022-08-05T16:24:03.450Z,101523.69
2022-08-05T16:27:47.312Z,101510.22
2022-08-05T16:31:12.618Z,101520.66
2022-08-05T16:34:39.241Z,101521.94
2022-08-05T16:38:24.279Z,101523.28
2022-08-05T16:42:14.197Z,101497.28
2022-08-05T16:46:03.849Z,101524.94
2022-08-05T16:49:22.665Z,101521.94
2022-08-05T16:52:47.725Z,101504.84
2022-08-05T16:56:12.697Z,101505.19
2022-08-05T17:00:03.148Z,101503.63
2022-08-05T17:03:22.644Z,101492.19
2022-08-05T17:06:53.403Z,101477.28
2022-08-05T17:10:17.634Z,101477.97
2022-08-05T17:13:42.270Z,101463.91
2022-08-05T17:17:14.615Z,101458.44
2022-08-05T17:20:55.014Z,101475.72
2022-08-05T17:24:35.363Z,101481.78
2022-08-05T17:28:03.574Z,101478.13
2022-08-05T17:31:57.067Z,101463.91
2022-08-05T17:35:12.322Z,101473.66
2022-08-05T17:38:40.628Z,101473.47
2022-08-05T17:42:18.348Z,101477.81
2022-08-05T17:45:45.630Z,101473.59
2022-08-05T17:49:08.657Z,101478.56
2022-08-05T17:52:33.625Z,101474.88
2022-08-05T17:55:57.607Z,101476.66
2022-08-05T17:59:22.788Z,101470.44
2022-08-05T18:02:51.635Z,101478.59
2022-08-05T18:06:16.748Z,101482.34
2022-08-05T18:09:59.832Z,101490.50
2022-08-05T18:13:23.631Z,101485.81
2022-08-05T18:16:52.431Z,101486.25
2022-08-05T18:20:16.613Z,101463.13
2022-08-05T18:23:47.135Z,101478.22
2022-08-05T18:27:18.039Z,101472.53
2022-08-05T18:30:43.651Z,101481.69
2022-08-05T18:34:06.759Z,101480.41
2022-08-05T18:37:40.278Z,101475.13
2022-08-05T18:41:55.146Z,101472.88
2022-08-05T18:44:49.425Z,101474.34
2022-08-05T18:48:30.621Z,101485.91
2022-08-05T18:52:16.645Z,101478.72
2022-08-05T18:55:40.643Z,101492.09
2022-08-05T18:59:05.108Z,101494.34
2022-08-05T19:02:48.806Z,101492.47
2022-08-05T19:06:21.738Z,101491.13
2022-08-05T19:09:46.654Z,101484.25
2022-08-05T19:13:15.979Z,101491.66
2022-08-05T19:16:46.789Z,101490.84
2022-08-05T19:20:11.690Z,101483.66
2022-08-05T19:24:05.086Z,101469.66
2022-08-05T19:27:24.055Z,101473.09
2022-08-05T19:30:49.688Z,101467.94
2022-08-05T19:34:14.623Z,101461.41
2022-08-05T19:38:06.327Z,101453.47
2022-08-05T19:42:05.755Z,101455.16
2022-08-05T19:45:14.399Z,101450.56
2022-08-05T19:48:39.669Z,101453.06
2022-08-05T19:52:31.801Z,101448.91
2022-08-05T19:56:15.291Z,101476.00
2022-08-05T19:59:56.102Z,101453.72
2022-08-05T20:03:38.690Z,101472.41
2022-08-05T20:07:13.309Z,101471.75
2022-08-05T20:10:37.693Z,101460.16
2022-08-05T20:14:12.325Z,101453.59
2022-08-05T20:17:39.651Z,101448.31
2022-08-05T20:21:04.767Z,101456.53
2022-08-05T20:24:29.736Z,101472.41
2022-08-05T20:27:53.635Z,101482.94
2022-08-05T20:31:28.384Z,101477.56
2022-08-05T20:35:02.677Z,101471.28
2022-08-05T20:38:27.694Z,101476.84
2022-08-05T20:41:54.655Z,101480.63
2022-08-05T20:45:56.690Z,101480.00
2022-08-05T20:49:09.655Z,101491.00
2022-08-05T20:52:37.713Z,101480.88
2022-08-05T20:56:08.611Z,101494.00
2022-08-05T20:59:46.315Z,101483.78
2022-08-05T21:03:20.742Z,101473.25
2022-08-05T21:06:46.182Z,101479.28
2022-08-05T21:10:13.746Z,101469.19
2022-08-05T21:13:56.226Z,101472.69
2022-08-05T21:17:20.695Z,101451.66
2022-08-05T21:20:45.736Z,101446.38
2022-08-05T21:24:13.325Z,101430.81
2022-08-05T21:27:40.686Z,101443.38
2022-08-05T21:31:12.704Z,101440.16
2022-08-05T21:34:37.691Z,101441.84
2022-08-05T21:38:02.777Z,101453.91
2022-08-05T21:41:33.848Z,101457.13
2022-08-05T21:44:58.710Z,101466.38
2022-08-05T21:48:22.713Z,101470.72
2022-08-05T21:52:15.772Z,101472.59
2022-08-05T21:56:04.170Z,101466.16
2022-08-05T21:59:22.578Z,101470.91
2022-08-05T22:02:48.703Z,101468.59
2022-08-05T22:06:14.676Z,101454.88
2022-08-05T22:09:46.207Z,101438.56
2022-08-05T22:14:19.378Z,101415.88
2022-08-05T22:17:00.181Z,101403.28
2022-08-05T22:20:28.695Z,101424.53
2022-08-05T22:24:13.235Z,101412.97
2022-08-05T22:28:11.098Z,101403.88
2022-08-05T22:31:44.875Z,101400.38
2022-08-05T22:35:09.693Z,101404.38
2022-08-05T22:38:33.739Z,101384.91
2022-08-05T22:42:09.518Z,101425.44
2022-08-05T22:45:36.716Z,101412.66
2022-08-05T22:48:55.277Z,101393.69
2022-08-05T22:52:22.947Z,101375.09
2022-08-05T22:55:57.157Z,101387.00
2022-08-05T22:59:45.489Z,101377.88
2022-08-05T23:03:08.818Z,101376.06
2022-08-05T23:06:38.740Z,101361.97
2022-08-05T23:10:03.680Z,101365.06
2022-08-05T23:13:27.743Z,101354.84
2022-08-05T23:17:12.208Z,101353.91
2022-08-05T23:20:37.826Z,101349.34
2022-08-05T23:24:03.805Z,101348.94
2022-08-05T23:27:57.515Z,101352.53
2022-08-05T23:31:20.737Z,101360.94
2022-08-05T23:34:47.881Z,101347.69
2022-08-05T23:38:12.680Z,101352.16
2022-08-05T23:41:41.066Z,101331.03
2022-08-05T23:45:13.875Z,101327.84
2022-08-05T23:48:38.732Z,101324.41
2022-08-05T23:52:18.423Z,101335.63
2022-08-05T23:55:43.773Z,101318.03
2022-08-05T23:59:07.732Z,101324.44
